createdAt,value
2018-07-08T00:01:47.240Z,0.20
2018-07-08T00:04:16.080Z,0.33
2018-07-08T00:06:45.080Z,0.50
2018-07-08T00:09:14.099Z,0.30
2018-07-08T00:11:43.084Z,0.27
2018-07-08T00:14:12.230Z,0.20
2018-07-08T00:16:41.189Z,0.30
2018-07-08T00:19:10.066Z,0.67
2018-07-08T00:21:39.216Z,0.20
2018-07-08T00:24:08.247Z,0.20
2018-07-08T00:26:37.120Z,1.03
2018-07-08T00:29:06.625Z,0.20
2018-07-08T00:31:35.949Z,0.20
2018-07-08T00:34:05.072Z,0.30
2018-07-08T00:36:34.491Z,0.20
2018-07-08T00:39:03.588Z,0.20
2018-07-08T00:41:32.418Z,0.20
2018-07-08T00:44:01.444Z,0.20
2018-07-08T00:46:30.383Z,0.40
2018-07-08T00:48:59.489Z,0.20
2018-07-08T00:51:28.413Z,0.40
2018-07-08T00:53:57.347Z,0.30
2018-07-08T00:56:26.318Z,18.90
2018-07-08T00:58:55.731Z,18.43
2018-07-08T01:01:24.742Z,23.80
2018-07-08T01:03:53.683Z,19.13
2018-07-08T01:06:22.660Z,20.70
2018-07-08T01:08:51.673Z,22.20
2018-07-08T01:11:20.661Z,22.87
2018-07-08T01:13:50.066Z,24.93
2018-07-08T01:16:18.975Z,20.83
2018-07-08T01:18:48.019Z,24.10
2018-07-08T01:21:17.336Z,20.33
2018-07-08T01:23:46.296Z,19.23
2018-07-08T01:26:15.214Z,15.03
2018-07-08T01:28:44.234Z,17.60
2018-07-08T01:31:13.748Z,19.37
2018-07-08T01:33:42.721Z,18.27
2018-07-08T01:36:11.687Z,15.80
2018-07-08T01:38:40.574Z,16.43
2018-07-08T01:41:09.563Z,17.93
2018-07-08T01:43:38.632Z,16.97
2018-07-08T01:46:07.651Z,17.20
2018-07-08T01:48:36.517Z,16.73
2018-07-08T01:51:06.055Z,14.57
2018-07-08T01:53:35.054Z,16.67
2018-07-08T01:56:04.008Z,16.37
2018-07-08T01:58:33.096Z,17.30
2018-07-08T02:01:02.163Z,19.93
2018-07-08T02:03:31.324Z,14.97
2018-07-08T02:06:00.254Z,14.20
2018-07-08T02:08:29.268Z,16.43
2018-07-08T02:10:58.276Z,13.77
2018-07-08T02:13:27.527Z,13.53
2018-07-08T02:15:56.632Z,14.30
2018-07-08T02:18:25.483Z,13.83
2018-07-08T02:20:54.967Z,12.87
2018-07-08T02:23:24.257Z,14.23
2018-07-08T02:25:53.347Z,12.83
2018-07-08T02:28:22.745Z,13.30
2018-07-08T02:30:51.919Z,12.07
2018-07-08T02:33:20.971Z,14.10
2018-07-08T02:35:50.675Z,13.10
2018-07-08T02:38:19.761Z,14.57
2018-07-08T02:40:48.978Z,12.80
2018-07-08T02:43:18.150Z,13.63
2018-07-08T02:45:47.367Z,15.33
2018-07-08T02:48:16.540Z,11.63
2018-07-08T02:50:45.933Z,10.70
2018-07-08T02:53:15.269Z,11.67
2018-07-08T02:55:44.232Z,14.23
2018-07-08T02:58:13.136Z,11.13
2018-07-08T03:00:42.043Z,16.13
2018-07-08T03:03:11.081Z,13.33
2018-07-08T03:05:42.763Z,13.77
2018-07-08T03:08:11.804Z,12.40
2018-07-08T03:10:40.723Z,12.10
2018-07-08T03:13:09.944Z,12.90
2018-07-08T03:15:38.924Z,11.63
2018-07-08T03:18:08.088Z,11.00
2018-07-08T03:20:37.747Z,12.20
2018-07-08T03:23:06.753Z,9.70
2018-07-08T03:25:35.902Z,16.20
2018-07-08T03:28:05.378Z,21.00
2018-07-08T03:30:34.372Z,20.97
2018-07-08T03:33:03.355Z,15.90
2018-07-08T03:35:32.709Z,11.00
2018-07-08T03:38:01.696Z,12.53
2018-07-08T03:40:31.672Z,10.00
2018-07-08T03:43:01.090Z,9.47
2018-07-08T03:45:30.086Z,10.37
2018-07-08T03:47:59.088Z,13.27
2018-07-08T03:50:28.195Z,8.80
2018-07-08T03:52:57.164Z,10.57
2018-07-08T03:55:26.176Z,8.10
2018-07-08T03:57:55.291Z,8.10
2018-07-08T04:00:24.294Z,10.43
2018-07-08T04:02:53.430Z,9.17
2018-07-08T04:05:22.574Z,12.27
2018-07-08T04:07:52.780Z,11.17
2018-07-08T04:10:21.908Z,12.27
2018-07-08T04:12:51.302Z,11.20
2018-07-08T04:15:22.865Z,13.83
2018-07-08T04:17:58.636Z,11.47
2018-07-08T04:20:43.652Z,14.20
2018-07-08T04:25:59.772Z,11.43
2018-07-08T04:28:33.772Z,14.73
2018-07-08T04:31:02.948Z,10.63
2018-07-08T04:33:33.239Z,12.83
2018-07-08T04:36:03.009Z,10.60
2018-07-08T04:38:32.520Z,21.63
2018-07-08T04:41:10.791Z,12.20
2018-07-08T04:43:40.340Z,9.20
2018-07-08T04:46:11.672Z,12.10
2018-07-08T04:48:41.993Z,8.13
2018-07-08T04:51:12.012Z,9.50
2018-07-08T04:53:41.866Z,9.03
2018-07-08T04:56:15.191Z,11.77
2018-07-08T04:58:50.257Z,11.93
2018-07-08T05:01:23.712Z,8.58
2018-07-08T05:03:54.727Z,13.43
2018-07-08T05:06:24.120Z,8.07
2018-07-08T05:08:56.818Z,11.07
2018-07-08T05:11:26.453Z,8.53
2018-07-08T05:13:56.412Z,8.23
2018-07-08T05:16:26.181Z,7.35
2018-07-08T05:18:57.074Z,6.87
2018-07-08T05:24:37.583Z,7.17
2018-07-08T05:27:12.785Z,6.70
2018-07-08T05:29:54.877Z,11.18
2018-07-08T05:32:27.258Z,7.95
2018-07-08T05:35:17.217Z,12.70
2018-07-08T05:38:02.837Z,9.68
2018-07-08T05:40:42.348Z,7.75
2018-07-08T05:43:19.438Z,8.40
2018-07-08T05:46:07.669Z,7.15
2018-07-08T05:51:52.094Z,8.90
2018-07-08T05:54:36.402Z,6.78
2018-07-08T05:57:16.314Z,7.12
2018-07-08T05:59:57.854Z,8.55
2018-07-08T06:02:37.256Z,8.23
2018-07-08T06:05:19.653Z,13.25
2018-07-08T06:07:50.611Z,8.05
2018-07-08T06:10:21.870Z,7.83
2018-07-08T06:22:21.848Z,7.92
2018-07-08T06:25:05.751Z,11.10
2018-07-08T06:30:39.414Z,8.30
2018-07-08T06:33:09.467Z,9.58
2018-07-08T06:35:39.535Z,12.63
2018-07-08T06:38:10.011Z,16.87
2018-07-08T06:40:40.770Z,11.25
2018-07-08T06:43:12.006Z,11.38
2018-07-08T06:45:41.311Z,10.00
2018-07-08T06:48:11.327Z,12.78
2018-07-08T06:50:41.266Z,11.78
2018-07-08T06:53:10.441Z,11.93
2018-07-08T06:55:39.621Z,12.28
2018-07-08T06:58:08.933Z,13.05
2018-07-08T07:00:37.990Z,13.20
2018-07-08T07:03:07.150Z,13.65
2018-07-08T07:05:36.218Z,14.55
2018-07-08T07:08:06.311Z,15.83
2018-07-08T07:10:35.343Z,15.83
2018-07-08T07:13:04.718Z,9.93
2018-07-08T07:15:33.773Z,14.43
2018-07-08T07:18:02.762Z,14.70
2018-07-08T07:20:32.026Z,12.33
2018-07-08T07:23:01.274Z,10.65
2018-07-08T07:25:30.593Z,10.98
2018-07-08T07:27:59.948Z,9.43
2018-07-08T07:30:28.948Z,8.73
2018-07-08T07:32:57.786Z,10.55
2018-07-08T07:35:27.065Z,10.85
2018-07-08T07:37:56.051Z,12.50
2018-07-08T07:40:25.003Z,10.70
2018-07-08T07:42:53.949Z,14.05
2018-07-08T07:45:23.019Z,10.45
2018-07-08T07:47:52.010Z,10.43
2018-07-08T07:50:21.439Z,10.90
2018-07-08T07:52:50.360Z,11.08
2018-07-08T07:55:19.261Z,11.50
2018-07-08T07:57:48.291Z,9.15
2018-07-08T08:00:17.283Z,9.30
2018-07-08T08:02:46.326Z,9.70
2018-07-08T08:05:15.674Z,10.53
2018-07-08T08:07:44.683Z,9.70
2018-07-08T08:10:13.735Z,15.00
2018-07-08T08:12:42.769Z,10.63
2018-07-08T08:15:11.780Z,16.15
2018-07-08T08:17:40.601Z,11.70
2018-07-08T08:20:09.572Z,13.98
2018-07-08T08:22:38.576Z,12.00
2018-07-08T08:25:07.524Z,11.12
2018-07-08T08:27:36.805Z,12.85
2018-07-08T08:30:05.748Z,12.47
2018-07-08T08:32:34.923Z,11.45
2018-07-08T08:35:11.350Z,11.12
2018-07-08T08:37:42.547Z,11.88
2018-07-08T08:40:12.754Z,11.75
2018-07-08T08:42:41.701Z,12.13
2018-07-08T08:45:12.046Z,11.70
2018-07-08T08:47:41.251Z,14.00
2018-07-08T08:50:11.145Z,11.75
2018-07-08T08:52:40.145Z,11.63
2018-07-08T08:55:10.111Z,11.68
2018-07-08T08:57:38.954Z,13.62
2018-07-08T09:00:10.630Z,12.23
2018-07-08T09:02:39.613Z,11.15
2018-07-08T09:05:08.903Z,12.13
2018-07-08T09:07:38.308Z,11.45
2018-07-08T09:10:07.413Z,11.30
2018-07-08T09:12:36.271Z,12.88
2018-07-08T09:15:05.598Z,10.45
2018-07-08T09:17:34.488Z,9.40
2018-07-08T09:20:03.462Z,10.85
2018-07-08T09:22:32.863Z,11.08
2018-07-08T09:25:01.886Z,9.58
2018-07-08T09:27:30.723Z,10.03
2018-07-08T09:29:59.959Z,9.70
2018-07-08T09:32:28.826Z,11.08
2018-07-08T09:34:57.715Z,10.08
2018-07-08T09:37:26.658Z,12.03
2018-07-08T09:39:55.544Z,10.85
2018-07-08T09:42:24.456Z,10.32
2018-07-08T09:44:53.871Z,10.85
2018-07-08T09:47:22.842Z,10.23
2018-07-08T09:49:51.695Z,11.97
2018-07-08T09:52:20.969Z,10.75
2018-07-08T09:54:49.915Z,12.33
2018-07-08T09:57:18.835Z,11.40
2018-07-08T09:59:48.889Z,11.12
2018-07-08T10:02:17.864Z,13.28
2018-07-08T10:04:47.040Z,10.90
2018-07-08T10:07:16.528Z,9.60
2018-07-08T10:09:45.551Z,9.75
2018-07-08T10:12:14.549Z,10.78
2018-07-08T10:14:44.032Z,9.95
2018-07-08T10:17:13.072Z,10.65
2018-07-08T10:19:42.176Z,8.48
2018-07-08T10:22:11.516Z,8.88
2018-07-08T10:24:40.468Z,7.67
2018-07-08T10:28:19.930Z,7.85
2018-07-08T10:30:53.194Z,8.30
2018-07-08T10:33:22.852Z,7.80
2018-07-08T10:36:05.099Z,9.53
2018-07-08T10:38:34.732Z,7.40
2018-07-08T10:41:06.105Z,8.53
2018-07-08T10:43:38.597Z,8.78
2018-07-08T10:46:07.854Z,8.18
2018-07-08T10:48:36.862Z,7.85
2018-07-08T10:51:06.336Z,9.13
2018-07-08T10:53:35.329Z,7.28
2018-07-08T10:56:05.472Z,8.15
2018-07-08T10:58:34.870Z,7.92
2018-07-08T11:01:04.040Z,7.08
2018-07-08T11:03:33.151Z,7.92
2018-07-08T11:06:06.837Z,8.75
2018-07-08T11:08:36.036Z,7.03
2018-07-08T11:11:05.112Z,8.45
2018-07-08T11:13:34.274Z,7.40
2018-07-08T11:16:03.287Z,7.55
2018-07-08T11:18:32.183Z,7.37
2018-07-08T11:21:01.214Z,7.70
2018-07-08T11:23:30.102Z,8.00
2018-07-08T11:25:58.985Z,8.38
2018-07-08T11:28:28.080Z,8.63
2018-07-08T11:30:57.017Z,7.95
2018-07-08T11:33:26.429Z,7.22
2018-07-08T11:38:49.638Z,7.12
2018-07-08T11:41:18.607Z,6.58
2018-07-08T11:43:47.605Z,6.15
2018-07-08T11:46:16.669Z,7.62
2018-07-08T11:48:45.734Z,6.65
2018-07-08T11:51:14.786Z,9.10
2018-07-08T11:53:44.083Z,6.15
2018-07-08T11:56:13.017Z,6.45
2018-07-08T11:58:42.019Z,6.62
2018-07-08T12:01:11.338Z,6.10
2018-07-08T12:03:40.242Z,7.25
2018-07-08T12:06:09.131Z,10.05
2018-07-08T12:08:38.435Z,6.92
2018-07-08T12:11:07.375Z,6.55
2018-07-08T12:13:36.332Z,6.65
2018-07-08T12:16:05.727Z,6.85
2018-07-08T12:18:34.726Z,5.65
2018-07-08T12:21:03.652Z,6.60
2018-07-08T12:23:33.530Z,7.47
2018-07-08T12:26:02.535Z,6.47
2018-07-08T12:28:31.635Z,6.40
2018-07-08T12:31:04.694Z,6.85
2018-07-08T12:33:33.903Z,8.08
2018-07-08T12:36:02.835Z,6.58
2018-07-08T12:38:32.306Z,6.10
2018-07-08T12:41:01.488Z,10.68
2018-07-08T12:43:30.604Z,6.70
2018-07-08T12:46:00.811Z,10.13
2018-07-08T12:48:29.850Z,10.72
2018-07-08T12:50:58.891Z,12.05
2018-07-08T12:53:30.106Z,11.00
2018-07-08T12:55:59.152Z,12.60
2018-07-08T12:58:27.998Z,12.00
2018-07-08T13:00:56.956Z,12.37
2018-07-08T13:03:25.823Z,12.77
2018-07-08T13:05:54.641Z,18.17
2018-07-08T13:08:23.612Z,19.83
2018-07-08T13:10:52.580Z,21.70
2018-07-08T13:13:21.465Z,22.57
2018-07-08T13:15:50.359Z,16.80
2018-07-08T13:18:19.276Z,18.77
2018-07-08T13:20:48.223Z,22.73
2018-07-08T13:23:17.572Z,16.63
2018-07-08T13:25:46.532Z,15.07
2018-07-08T13:28:15.462Z,17.33
2018-07-08T13:30:44.697Z,14.33
2018-07-08T13:33:13.477Z,16.23
2018-07-08T13:35:42.420Z,21.87
2018-07-08T13:38:11.409Z,14.40
2018-07-08T13:40:40.302Z,16.13
2018-07-08T13:43:09.299Z,12.97
2018-07-08T13:45:38.479Z,13.73
2018-07-08T13:48:08.203Z,12.77
2018-07-08T13:50:37.137Z,18.53
2018-07-08T13:53:06.489Z,20.90
2018-07-08T13:55:35.582Z,20.13
2018-07-08T13:58:04.692Z,15.40
2018-07-08T14:00:33.969Z,15.87
2018-07-08T14:03:02.834Z,13.87
2018-07-08T14:05:31.770Z,15.60
2018-07-08T14:08:01.029Z,13.17
2018-07-08T14:10:29.955Z,16.20
2018-07-08T14:12:58.916Z,15.40
2018-07-08T14:15:28.310Z,15.70
2018-07-08T14:17:57.181Z,14.77
2018-07-08T14:20:26.178Z,14.17
2018-07-08T14:22:55.581Z,14.87
2018-07-08T14:25:24.443Z,16.47
2018-07-08T14:27:53.470Z,12.00
2018-07-08T14:30:22.764Z,12.93
2018-07-08T14:32:51.848Z,12.20
2018-07-08T14:35:20.776Z,12.40
2018-07-08T14:37:50.224Z,11.60
2018-07-08T14:40:19.284Z,10.17
2018-07-08T14:42:48.270Z,11.47
2018-07-08T14:45:20.920Z,11.77
2018-07-08T14:47:49.989Z,13.90
2018-07-08T14:50:18.933Z,10.67
2018-07-08T14:52:47.992Z,9.63
2018-07-08T14:55:16.896Z,11.23
2018-07-08T14:57:45.835Z,10.47
2018-07-08T15:00:15.272Z,10.67
2018-07-08T15:02:44.516Z,9.37
2018-07-08T15:05:13.510Z,10.80
2018-07-08T15:07:43.162Z,12.50
2018-07-08T15:10:12.958Z,8.13
2018-07-08T15:12:41.912Z,8.57
2018-07-08T15:15:11.474Z,8.27
2018-07-08T15:17:40.369Z,8.03
2018-07-08T15:20:10.396Z,8.63
2018-07-08T15:22:39.698Z,8.10
2018-07-08T15:25:08.749Z,9.33
2018-07-08T15:27:37.763Z,9.65
2018-07-08T15:30:07.016Z,8.00
2018-07-08T15:32:35.976Z,7.53
2018-07-08T15:35:05.406Z,7.22
2018-07-08T15:37:34.942Z,8.23
2018-07-08T15:40:03.945Z,8.00
2018-07-08T15:42:32.945Z,10.93
2018-07-08T15:45:03.291Z,10.35
2018-07-08T15:47:32.520Z,8.65
2018-07-08T15:50:01.531Z,11.18
2018-07-08T15:52:32.877Z,8.23
2018-07-08T15:55:02.020Z,8.70
2018-07-08T15:57:31.075Z,10.75
2018-07-08T16:00:00.448Z,11.10
2018-07-08T16:02:29.399Z,7.87
2018-07-08T16:04:58.543Z,10.55
2018-07-08T16:07:27.959Z,10.95
2018-07-08T16:09:56.996Z,14.07
2018-07-08T16:12:26.002Z,12.13
2018-07-08T16:14:55.621Z,11.60
2018-07-08T16:17:24.709Z,11.33
2018-07-08T16:19:53.680Z,9.90
2018-07-08T16:22:22.734Z,11.33
2018-07-08T16:24:51.753Z,10.18
2018-07-08T16:27:20.715Z,8.95
2018-07-08T16:29:49.878Z,10.55
2018-07-08T16:32:18.844Z,10.45
2018-07-08T16:34:47.892Z,8.13
2018-07-08T16:37:17.144Z,13.10
2018-07-08T16:39:46.284Z,8.53
2018-07-08T16:42:18.508Z,14.75
2018-07-08T16:44:47.486Z,7.97
2018-07-08T16:47:17.059Z,12.57
2018-07-08T16:49:46.242Z,12.20
2018-07-08T16:52:15.399Z,10.37
2018-07-08T16:54:44.487Z,10.20
2018-07-08T16:57:13.871Z,10.47
2018-07-08T16:59:48.423Z,10.27
2018-07-08T17:02:17.741Z,9.77
2018-07-08T17:04:46.858Z,9.20
2018-07-08T17:07:20.405Z,8.67
2018-07-08T17:09:49.497Z,10.87
2018-07-08T17:12:18.574Z,12.07
2018-07-08T17:14:48.101Z,11.13
2018-07-08T17:17:17.144Z,10.43
2018-07-08T17:19:46.224Z,9.77
2018-07-08T17:22:15.671Z,13.47
2018-07-08T17:24:45.523Z,10.57
2018-07-08T17:27:14.754Z,9.47
2018-07-08T17:29:43.963Z,7.90
2018-07-08T17:32:13.088Z,10.57
2018-07-08T17:34:42.943Z,9.70
2018-07-08T17:37:12.298Z,12.33
2018-07-08T17:39:44.057Z,11.50
2018-07-08T17:42:13.678Z,12.47
2018-07-08T17:44:43.024Z,12.23
2018-07-08T17:47:12.152Z,11.83
2018-07-08T17:49:41.606Z,12.27
2018-07-08T17:52:10.855Z,10.37
2018-07-08T17:54:39.782Z,12.43
2018-07-08T17:57:08.959Z,11.87
2018-07-08T17:59:41.735Z,15.37
2018-07-08T18:02:11.218Z,13.57
2018-07-08T18:04:41.608Z,14.23
2018-07-08T18:07:10.677Z,15.03
2018-07-08T18:09:39.940Z,15.57
2018-07-08T18:12:09.085Z,12.83
2018-07-08T18:14:38.306Z,13.73
2018-07-08T18:17:07.860Z,14.13
2018-07-08T18:19:36.814Z,13.80
2018-07-08T18:22:07.171Z,15.63
2018-07-08T18:24:36.180Z,13.90
2018-07-08T18:27:05.299Z,13.90
2018-07-08T18:29:34.734Z,24.97
2018-07-08T18:32:03.927Z,23.20
2018-07-08T18:34:33.238Z,32.87
2018-07-08T18:37:02.778Z,22.17
2018-07-08T18:39:31.805Z,40.40
2018-07-08T18:42:00.891Z,21.93
2018-07-08T18:44:30.065Z,31.13
2018-07-08T18:46:59.043Z,31.73
2018-07-08T18:49:28.316Z,13.40
2018-07-08T18:51:57.576Z,18.57
2018-07-08T18:54:26.619Z,18.27
2018-07-08T18:56:55.572Z,12.63
2018-07-08T18:59:24.737Z,8.83
2018-07-08T19:01:53.895Z,9.57
2018-07-08T19:04:22.930Z,10.90
2018-07-08T19:06:52.548Z,9.63
2018-07-08T19:09:21.639Z,7.97
2018-07-08T19:11:50.929Z,10.17
2018-07-08T19:14:20.536Z,11.10
2018-07-08T19:16:49.627Z,8.47
2018-07-08T19:19:18.843Z,7.43
2018-07-08T19:21:48.333Z,8.60
2018-07-08T19:24:17.345Z,12.97
2018-07-08T19:26:46.520Z,8.57
2018-07-08T19:29:15.591Z,10.60
2018-07-08T19:31:44.583Z,8.57
2018-07-08T19:34:13.795Z,7.37
2018-07-08T19:36:45.362Z,9.67
2018-07-08T19:39:15.503Z,8.90
2018-07-08T19:41:44.680Z,7.43
2018-07-08T19:44:13.797Z,7.90
2018-07-08T19:46:42.961Z,7.80
2018-07-08T19:49:13.017Z,7.57
2018-07-08T19:51:42.566Z,7.73
2018-07-08T19:54:11.900Z,7.43
2018-07-08T19:56:41.400Z,6.17
2018-07-08T19:59:10.423Z,8.20
2018-07-08T20:01:39.975Z,6.30
2018-07-08T20:04:09.060Z,7.43
2018-07-08T20:06:38.137Z,10.37
2018-07-08T20:09:08.669Z,10.10
2018-07-08T20:11:37.571Z,7.43
2018-07-08T20:14:06.479Z,7.50
2018-07-08T20:16:35.759Z,11.03
2018-07-08T20:19:04.711Z,8.67
2018-07-08T20:21:33.962Z,41.50
2018-07-08T20:24:05.049Z,16.30
2018-07-08T20:26:35.113Z,14.13
2018-07-08T20:29:04.411Z,8.97
2018-07-08T20:31:33.621Z,10.07
2018-07-08T20:34:02.789Z,10.30
2018-07-08T20:36:31.986Z,11.33
2018-07-08T20:39:01.673Z,12.13
2018-07-08T20:41:31.032Z,11.80
2018-07-08T20:44:00.213Z,37.00
2018-07-08T20:46:31.075Z,22.43
2018-07-08T20:49:00.328Z,13.60
2018-07-08T20:51:29.176Z,15.77
2018-07-08T20:53:58.714Z,12.10
2018-07-08T20:56:27.784Z,11.93
2018-07-08T20:58:56.907Z,9.63
2018-07-08T21:01:26.192Z,11.90
2018-07-08T21:03:55.281Z,8.80
2018-07-08T21:06:24.186Z,10.77
2018-07-08T21:08:53.672Z,11.37
2018-07-08T21:11:22.872Z,10.63
2018-07-08T21:13:52.542Z,9.57
2018-07-08T21:16:22.389Z,11.53
2018-07-08T21:18:51.601Z,8.57
2018-07-08T21:21:20.793Z,11.73
2018-07-08T21:23:50.895Z,10.33
2018-07-08T21:26:19.883Z,9.37
2018-07-08T21:28:48.983Z,9.77
2018-07-08T21:31:18.380Z,9.47
2018-07-08T21:33:47.459Z,8.53
2018-07-08T21:36:16.627Z,10.20
2018-07-08T21:38:46.338Z,7.90
2018-07-08T21:41:15.515Z,12.97
2018-07-08T21:43:44.536Z,8.47
2018-07-08T21:46:14.181Z,9.80
2018-07-08T21:48:43.579Z,8.90
2018-07-08T21:51:14.330Z,8.80
2018-07-08T21:53:43.751Z,8.90
2018-07-08T21:56:13.058Z,10.00
2018-07-08T21:58:43.783Z,8.23
2018-07-08T22:01:15.171Z,8.23
2018-07-08T22:03:48.096Z,8.00
2018-07-08T22:06:19.139Z,8.73
2018-07-08T22:08:48.484Z,9.77
2018-07-08T22:11:18.269Z,9.93
2018-07-08T22:13:49.345Z,10.27
2018-07-08T22:16:18.677Z,9.97
2018-07-08T22:18:51.151Z,15.90
2018-07-08T22:21:20.828Z,11.17
2018-07-08T22:23:50.719Z,10.77
2018-07-08T22:26:19.804Z,10.23
2018-07-08T22:28:48.966Z,9.20
2018-07-08T22:31:18.431Z,8.03
2018-07-08T22:33:47.481Z,9.57
2018-07-08T22:36:16.747Z,8.03
2018-07-08T22:38:45.974Z,8.97
2018-07-08T22:41:15.028Z,9.63
2018-07-08T22:43:44.101Z,10.53
2018-07-08T22:46:13.451Z,7.73
2018-07-08T22:48:42.493Z,10.20
2018-07-08T22:51:11.608Z,8.57
2018-07-08T22:53:40.910Z,8.47
2018-07-08T22:56:10.167Z,7.87
2018-07-08T22:58:39.227Z,11.40
2018-07-08T23:01:19.128Z,8.30
2018-07-08T23:03:55.140Z,8.97
2018-07-08T23:06:24.870Z,10.90
2018-07-08T23:08:54.409Z,8.60
2018-07-08T23:11:24.290Z,10.50
2018-07-08T23:13:54.734Z,13.10
2018-07-08T23:16:24.350Z,9.90
2018-07-08T23:18:53.512Z,9.17
2018-07-08T23:21:22.594Z,9.77
2018-07-08T23:23:51.591Z,10.27
2018-07-08T23:26:21.628Z,9.47
2018-07-08T23:28:51.240Z,9.70
2018-07-08T23:31:20.532Z,9.20
2018-07-08T23:33:49.642Z,10.17
2018-07-08T23:36:18.924Z,8.40
2018-07-08T23:38:48.097Z,8.97
2018-07-08T23:41:17.250Z,10.10
2018-07-08T23:43:46.603Z,8.10
2018-07-08T23:46:15.844Z,9.23
2018-07-08T23:48:46.017Z,7.93
2018-07-08T23:51:15.353Z,10.50
2018-07-08T23:53:44.523Z,8.20
2018-07-08T23:56:14.516Z,9.17
2018-07-08T23:58:45.619Z,7.77
